createdAt,value
2019-03-04T00:01:53.135Z,1.90
2019-03-04T00:04:21.411Z,2.00
2019-03-04T00:06:49.661Z,0.83
2019-03-04T00:09:17.935Z,1.70
2019-03-04T00:11:46.196Z,2.90
2019-03-04T00:14:14.463Z,0.80
2019-03-04T00:16:42.713Z,1.13
2019-03-04T00:19:10.978Z,1.53
2019-03-04T00:21:39.238Z,1.47
2019-03-04T00:24:07.507Z,2.00
2019-03-04T00:26:37.394Z,3.67
2019-03-04T00:29:05.669Z,0.87
2019-03-04T00:31:33.923Z,2.80
2019-03-04T00:34:02.192Z,0.93
2019-03-04T00:36:30.451Z,2.10
2019-03-04T00:38:58.782Z,3.77
2019-03-04T00:41:27.393Z,1.17
2019-03-04T00:43:55.659Z,1.00
2019-03-04T00:46:23.987Z,2.03
2019-03-04T00:48:52.264Z,1.33
2019-03-04T00:51:20.599Z,2.50
2019-03-04T00:53:48.935Z,2.67
2019-03-04T00:56:17.194Z,1.57
2019-03-04T00:58:45.471Z,1.63
2019-03-04T01:01:13.731Z,1.33
2019-03-04T01:03:42.006Z,0.93
2019-03-04T01:06:10.268Z,1.17
2019-03-04T01:08:38.590Z,1.33
2019-03-04T01:11:06.874Z,1.10
2019-03-04T01:13:35.120Z,1.17
2019-03-04T01:16:03.382Z,1.50
2019-03-04T01:18:31.647Z,0.77
2019-03-04T01:20:59.915Z,1.07
2019-03-04T01:23:28.174Z,0.60
2019-03-04T01:25:58.070Z,1.90
2019-03-04T01:28:26.334Z,0.83
2019-03-04T01:30:54.767Z,0.90
2019-03-04T01:33:23.023Z,1.30
2019-03-04T01:35:51.662Z,1.33
2019-03-04T01:38:19.921Z,1.17
2019-03-04T01:40:48.197Z,0.70
2019-03-04T01:43:16.447Z,2.53
2019-03-04T01:45:44.711Z,1.67
2019-03-04T01:48:12.972Z,1.47
2019-03-04T01:50:41.247Z,1.93
2019-03-04T01:53:09.503Z,1.47
2019-03-04T01:55:37.855Z,0.80
2019-03-04T01:58:06.111Z,0.97
2019-03-04T02:00:34.388Z,2.20
2019-03-04T02:03:02.787Z,2.13
2019-03-04T02:05:31.051Z,1.27
2019-03-04T02:07:59.310Z,1.60
2019-03-04T02:10:27.580Z,0.60
2019-03-04T02:12:55.834Z,1.43
2019-03-04T02:15:24.159Z,1.27
2019-03-04T02:17:52.430Z,0.70
2019-03-04T02:20:20.760Z,1.20
2019-03-04T02:22:49.026Z,1.30
2019-03-04T02:25:39.611Z,0.93
2019-03-04T02:28:07.870Z,1.70
2019-03-04T02:30:36.127Z,1.00
2019-03-04T02:33:04.404Z,0.70
2019-03-04T02:35:32.674Z,0.87
2019-03-04T02:38:01.000Z,1.43
2019-03-04T02:40:29.583Z,1.80
2019-03-04T02:42:58.165Z,1.63
2019-03-04T02:45:26.430Z,0.93
2019-03-04T02:47:54.710Z,0.70
2019-03-04T02:50:23.035Z,0.70
2019-03-04T02:52:51.297Z,0.70
2019-03-04T02:55:19.560Z,0.57
2019-03-04T02:57:47.828Z,1.40
2019-03-04T03:00:17.826Z,0.60
2019-03-04T03:02:46.094Z,1.70
2019-03-04T03:05:14.349Z,1.00
2019-03-04T03:07:42.613Z,1.90
2019-03-04T03:10:15.170Z,2.57
2019-03-04T03:12:43.575Z,1.83
2019-03-04T03:15:13.440Z,1.57
2019-03-04T03:17:41.705Z,1.77
2019-03-04T03:20:13.694Z,1.03
2019-03-04T03:22:41.964Z,0.77
2019-03-04T03:25:17.195Z,0.70
2019-03-04T03:27:45.521Z,0.93
2019-03-04T03:30:16.615Z,0.80
2019-03-04T03:32:44.916Z,0.47
2019-03-04T03:35:13.229Z,0.97
2019-03-04T03:37:41.614Z,1.53
2019-03-04T03:40:12.424Z,1.40
2019-03-04T03:42:40.678Z,0.70
2019-03-04T03:45:09.786Z,2.20
2019-03-04T03:47:38.044Z,1.90
2019-03-04T03:50:11.379Z,0.80
2019-03-04T03:52:39.634Z,1.03
2019-03-04T03:55:09.938Z,1.20
2019-03-04T03:57:38.191Z,0.87
2019-03-04T04:00:25.571Z,1.40
2019-03-04T04:02:53.823Z,0.93
2019-03-04T04:05:22.088Z,1.20
2019-03-04T04:07:50.343Z,1.47
2019-03-04T04:10:19.462Z,0.77
2019-03-04T04:12:47.800Z,0.97
2019-03-04T04:15:17.168Z,1.40
2019-03-04T04:17:45.421Z,1.50
2019-03-04T04:20:13.955Z,0.30
2019-03-04T04:22:42.622Z,1.37
2019-03-04T04:25:11.849Z,0.90
2019-03-04T04:27:40.158Z,1.03
2019-03-04T04:30:11.639Z,1.07
2019-03-04T04:32:40.126Z,1.33
2019-03-04T04:35:08.566Z,3.23
2019-03-04T04:37:37.092Z,0.70
2019-03-04T04:40:08.488Z,1.20
2019-03-04T04:42:36.742Z,0.77
2019-03-04T04:45:06.718Z,0.87
2019-03-04T04:47:34.970Z,0.83
2019-03-04T04:50:05.235Z,0.67
2019-03-04T04:52:33.489Z,1.27
2019-03-04T04:55:01.749Z,0.77
2019-03-04T04:57:30.014Z,0.70
2019-03-04T04:59:58.265Z,1.27
2019-03-04T05:02:26.530Z,0.43
2019-03-04T05:04:54.786Z,0.57
2019-03-04T05:07:23.059Z,1.10
2019-03-04T05:09:51.305Z,0.53
2019-03-04T05:12:19.574Z,0.53
2019-03-04T05:14:47.827Z,1.50
2019-03-04T05:17:16.199Z,0.50
2019-03-04T05:19:44.452Z,0.50
2019-03-04T05:22:12.713Z,1.50
2019-03-04T05:24:40.971Z,1.30
2019-03-04T05:27:09.238Z,0.90
2019-03-04T05:29:37.493Z,1.03
2019-03-04T05:32:05.832Z,1.27
2019-03-04T05:34:34.086Z,0.60
2019-03-04T05:37:02.351Z,1.60
2019-03-04T05:39:30.606Z,1.03
2019-03-04T05:41:58.873Z,1.23
2019-03-04T05:44:27.128Z,0.60
2019-03-04T05:46:55.614Z,1.73
2019-03-04T05:49:23.866Z,0.57
2019-03-04T05:51:52.126Z,1.83
2019-03-04T05:54:20.395Z,0.87
2019-03-04T05:56:48.654Z,1.63
2019-03-04T05:59:19.955Z,1.00
2019-03-04T06:01:50.254Z,1.07
2019-03-04T06:04:18.526Z,1.33
2019-03-04T06:06:51.150Z,1.27
2019-03-04T06:09:19.413Z,0.50
2019-03-04T06:11:47.666Z,1.33
2019-03-04T06:14:15.937Z,1.27
2019-03-04T06:16:47.290Z,1.30
2019-03-04T06:19:14.698Z,1.93
2019-03-04T06:21:42.950Z,1.03
2019-03-04T06:24:11.218Z,1.57
2019-03-04T06:26:39.469Z,1.07
2019-03-04T06:29:07.801Z,0.90
2019-03-04T06:31:36.054Z,0.70
2019-03-04T06:34:04.336Z,2.23
2019-03-04T06:36:32.591Z,1.37
2019-03-04T06:39:00.858Z,2.27
2019-03-04T06:41:29.107Z,1.83
2019-03-04T06:43:57.379Z,3.33
2019-03-04T06:46:25.634Z,1.77
2019-03-04T06:48:53.898Z,2.77
2019-03-04T06:51:28.049Z,1.60
2019-03-04T06:54:05.411Z,1.70
2019-03-04T06:56:57.894Z,2.80
2019-03-04T06:59:51.437Z,1.17
2019-03-04T07:02:34.842Z,1.77
2019-03-04T07:05:24.578Z,1.47
2019-03-04T07:07:52.830Z,1.70
2019-03-04T07:10:21.218Z,2.30
2019-03-04T07:12:49.546Z,1.80
2019-03-04T07:15:18.131Z,2.43
2019-03-04T07:17:46.386Z,1.20
2019-03-04T07:20:19.387Z,2.37
2019-03-04T07:22:48.515Z,2.37
2019-03-04T07:25:16.987Z,8.40
2019-03-04T07:27:45.243Z,6.60
2019-03-04T07:30:18.470Z,4.53
2019-03-04T07:32:47.010Z,11.47
2019-03-04T07:35:15.604Z,14.17
2019-03-04T07:37:43.850Z,8.90
2019-03-04T07:40:17.450Z,12.00
2019-03-04T07:42:45.705Z,6.53
2019-03-04T07:45:13.970Z,13.53
2019-03-04T07:47:42.222Z,8.10
2019-03-04T07:50:11.054Z,7.30
2019-03-04T07:52:39.318Z,11.57
2019-03-04T07:55:08.122Z,8.93
2019-03-04T07:57:36.381Z,7.00
2019-03-04T08:00:12.099Z,9.03
2019-03-04T08:02:40.358Z,10.87
2019-03-04T08:05:10.867Z,8.37
2019-03-04T08:07:41.158Z,4.30
2019-03-04T08:10:38.394Z,4.43
2019-03-04T08:13:19.216Z,5.27
2019-03-04T08:15:47.496Z,9.87
2019-03-04T08:18:15.745Z,3.83
2019-03-04T08:20:44.011Z,5.87
2019-03-04T08:23:13.307Z,5.80
2019-03-04T08:25:41.622Z,9.47
2019-03-04T08:28:10.914Z,5.63
2019-03-04T08:30:39.178Z,5.33
2019-03-04T08:33:07.430Z,4.50
2019-03-04T08:35:35.774Z,6.27
2019-03-04T08:38:04.100Z,3.53
2019-03-04T08:40:32.363Z,4.77
2019-03-04T08:43:00.618Z,2.10
2019-03-04T08:45:28.954Z,2.83
2019-03-04T08:47:57.531Z,6.00
2019-03-04T08:50:25.798Z,3.57
2019-03-04T08:52:54.058Z,5.10
2019-03-04T08:55:22.310Z,4.47
2019-03-04T08:57:50.678Z,3.90
2019-03-04T09:00:25.154Z,6.53
2019-03-04T09:02:53.758Z,7.73
2019-03-04T09:05:22.059Z,8.80
2019-03-04T09:07:50.325Z,14.27
2019-03-04T09:10:24.358Z,9.33
2019-03-04T09:12:52.694Z,15.53
2019-03-04T09:15:20.946Z,15.97
2019-03-04T09:17:49.217Z,22.83
2019-03-04T09:20:18.419Z,15.23
2019-03-04T09:22:46.690Z,16.03
2019-03-04T09:25:30.505Z,19.40
2019-03-04T09:27:57.125Z,10.50
2019-03-04T09:30:25.387Z,14.07
2019-03-04T09:32:53.658Z,12.27
2019-03-04T09:35:21.914Z,12.73
2019-03-04T09:37:50.184Z,12.87
2019-03-04T09:40:22.611Z,7.00
2019-03-04T09:42:51.820Z,11.07
2019-03-04T09:45:20.077Z,12.87
2019-03-04T09:47:48.342Z,11.27
2019-03-04T09:50:26.934Z,11.67
2019-03-04T09:52:55.193Z,5.20
2019-03-04T09:55:23.718Z,7.47
2019-03-04T09:57:51.993Z,11.97
2019-03-04T10:00:31.930Z,5.47
2019-03-04T10:03:32.434Z,8.93
2019-03-04T10:06:26.513Z,9.50
2019-03-04T10:09:23.866Z,8.83
2019-03-04T10:12:01.376Z,6.67
2019-03-04T10:15:08.304Z,8.37
2019-03-04T10:17:52.755Z,4.60
2019-03-04T10:20:32.801Z,5.80
2019-03-04T10:23:28.554Z,10.47
2019-03-04T10:26:22.894Z,9.47
2019-03-04T10:28:55.410Z,7.03
2019-03-04T10:31:55.475Z,5.30
2019-03-04T10:34:45.342Z,4.77
2019-03-04T10:37:29.147Z,3.97
2019-03-04T10:40:29.186Z,5.50
2019-03-04T10:43:03.607Z,4.93
2019-03-04T10:45:47.196Z,8.17
2019-03-04T10:48:15.458Z,5.57
2019-03-04T10:50:43.710Z,9.03
2019-03-04T10:53:11.974Z,4.53
2019-03-04T10:55:42.276Z,4.50
2019-03-04T10:58:10.227Z,6.00
2019-03-04T11:00:38.487Z,4.87
2019-03-04T11:03:07.533Z,4.07
2019-03-04T11:05:35.778Z,3.90
2019-03-04T11:08:04.042Z,4.50
2019-03-04T11:10:32.295Z,4.80
2019-03-04T11:13:00.570Z,4.00
2019-03-04T11:15:28.899Z,3.80
2019-03-04T11:17:57.146Z,1.90
2019-03-04T11:20:25.409Z,7.10
2019-03-04T11:22:53.663Z,2.77
2019-03-04T11:25:21.929Z,3.33
2019-03-04T11:27:50.181Z,4.17
2019-03-04T11:30:26.322Z,2.90
2019-03-04T11:32:54.578Z,4.10
2019-03-04T11:35:22.844Z,5.10
2019-03-04T11:37:51.169Z,4.90
2019-03-04T11:40:24.330Z,4.63
2019-03-04T11:42:52.583Z,3.63
2019-03-04T11:45:21.186Z,9.00
2019-03-04T11:47:49.440Z,5.13
2019-03-04T11:50:17.701Z,6.87
2019-03-04T11:52:45.965Z,5.47
2019-03-04T11:55:19.887Z,4.57
2019-03-04T11:57:48.610Z,8.60
2019-03-04T12:00:32.385Z,9.83
2019-03-04T12:03:00.638Z,7.27
2019-03-04T12:05:28.902Z,5.93
2019-03-04T12:07:57.158Z,8.80
2019-03-04T12:10:25.426Z,8.97
2019-03-04T12:12:53.683Z,7.17
2019-03-04T12:15:22.117Z,9.37
2019-03-04T12:17:50.378Z,6.03
2019-03-04T12:20:18.809Z,4.53
2019-03-04T12:22:47.063Z,4.73
2019-03-04T12:25:19.398Z,7.87
2019-03-04T12:27:47.726Z,4.40
2019-03-04T12:30:23.199Z,6.43
2019-03-04T12:32:51.998Z,7.07
2019-03-04T12:35:20.335Z,4.33
2019-03-04T12:37:48.596Z,10.23
2019-03-04T12:40:20.970Z,4.90
2019-03-04T12:42:49.293Z,5.50
2019-03-04T12:45:22.986Z,4.57
2019-03-04T12:47:51.250Z,5.50
2019-03-04T12:50:33.204Z,5.27
2019-03-04T12:53:01.454Z,4.53
2019-03-04T12:55:29.730Z,4.93
2019-03-04T12:57:57.981Z,3.50
2019-03-04T13:00:30.113Z,2.93
2019-03-04T13:02:58.903Z,6.27
2019-03-04T13:05:27.175Z,4.90
2019-03-04T13:07:55.435Z,4.40
2019-03-04T13:10:23.753Z,3.40
2019-03-04T13:12:52.657Z,4.30
2019-03-04T13:15:23.622Z,7.27
2019-03-04T13:17:51.877Z,3.53
2019-03-04T13:20:25.877Z,3.83
2019-03-04T13:22:54.170Z,5.37
2019-03-04T13:25:22.427Z,4.47
2019-03-04T13:27:50.703Z,3.93
2019-03-04T13:30:27.154Z,5.13
2019-03-04T13:32:55.421Z,10.83
2019-03-04T13:35:30.662Z,5.23
2019-03-04T13:37:58.931Z,3.37
2019-03-04T13:40:28.126Z,9.97
2019-03-04T13:42:56.394Z,8.20
2019-03-04T13:45:24.645Z,7.37
2019-03-04T13:47:52.918Z,4.53
2019-03-04T13:50:31.033Z,3.47
2019-03-04T13:52:59.303Z,7.10
2019-03-04T13:55:27.736Z,8.13
2019-03-04T13:57:56.001Z,5.80
2019-03-04T14:00:26.595Z,7.37
2019-03-04T14:02:54.859Z,6.03
2019-03-04T14:05:26.085Z,11.03
2019-03-04T14:07:54.372Z,7.43
2019-03-04T14:10:28.425Z,3.37
2019-03-04T14:12:56.688Z,3.47
2019-03-04T14:15:39.433Z,5.03
2019-03-04T14:18:07.699Z,6.77
2019-03-04T14:20:35.949Z,4.27
2019-03-04T14:23:04.388Z,3.73
2019-03-04T14:25:32.653Z,12.77
2019-03-04T14:28:00.905Z,6.37
2019-03-04T14:30:29.158Z,8.87
2019-03-04T14:32:57.422Z,4.13
2019-03-04T14:35:25.676Z,3.43
2019-03-04T14:37:53.946Z,5.80
2019-03-04T14:40:23.619Z,4.07
2019-03-04T14:42:51.881Z,3.87
2019-03-04T14:45:22.239Z,4.90
2019-03-04T14:47:50.611Z,5.17
2019-03-04T14:50:20.098Z,2.73
2019-03-04T14:52:48.362Z,4.27
2019-03-04T14:55:24.914Z,4.80
2019-03-04T14:57:53.950Z,3.70
2019-03-04T15:00:32.902Z,3.23
2019-03-04T15:03:01.179Z,3.57
2019-03-04T15:05:29.417Z,7.57
2019-03-04T15:07:57.686Z,4.93
2019-03-04T15:10:25.938Z,2.57
2019-03-04T15:12:54.210Z,7.53
2019-03-04T15:15:24.117Z,4.17
2019-03-04T15:17:52.370Z,1.83
2019-03-04T15:20:23.134Z,3.17
2019-03-04T15:22:51.391Z,1.93
2019-03-04T15:25:22.465Z,2.87
2019-03-04T15:27:51.491Z,2.87
2019-03-04T15:30:19.753Z,3.53
2019-03-04T15:32:48.012Z,1.47
2019-03-04T15:35:16.278Z,2.57
2019-03-04T15:37:44.538Z,2.97
2019-03-04T15:40:14.654Z,4.10
2019-03-04T15:42:42.906Z,3.03
2019-03-04T15:45:12.786Z,3.53
2019-03-04T15:47:42.266Z,4.77
2019-03-04T15:50:11.370Z,5.03
2019-03-04T15:52:39.621Z,5.07
2019-03-04T15:55:10.986Z,4.43
2019-03-04T15:57:39.242Z,2.10
2019-03-04T16:00:12.842Z,7.70
2019-03-04T16:02:41.100Z,5.10
2019-03-04T16:05:11.603Z,3.20
2019-03-04T16:07:39.858Z,7.30
2019-03-04T16:10:14.160Z,4.43
2019-03-04T16:12:42.582Z,3.33
2019-03-04T16:15:13.888Z,4.13
2019-03-04T16:17:42.146Z,3.30
2019-03-04T16:20:15.961Z,3.93
2019-03-04T16:22:42.627Z,2.07
2019-03-04T16:25:11.730Z,2.40
2019-03-04T16:27:39.990Z,3.70
2019-03-04T16:30:14.295Z,3.97
2019-03-04T16:32:42.989Z,2.00
2019-03-04T16:35:11.267Z,3.57
2019-03-04T16:37:39.514Z,4.53
2019-03-04T16:40:13.887Z,2.50
2019-03-04T16:42:42.138Z,7.07
2019-03-04T16:45:13.507Z,3.80
2019-03-04T16:47:41.838Z,1.47
2019-03-04T16:50:15.390Z,4.33
2019-03-04T16:52:46.242Z,3.17
2019-03-04T16:55:15.798Z,2.80
2019-03-04T16:57:44.055Z,1.97
2019-03-04T17:00:17.845Z,4.30
2019-03-04T17:02:46.091Z,2.20
2019-03-04T17:05:18.457Z,1.97
2019-03-04T17:07:47.450Z,3.37
2019-03-04T17:10:18.362Z,1.83
2019-03-04T17:12:46.608Z,1.80
2019-03-04T17:15:22.067Z,2.20
2019-03-04T17:17:50.316Z,1.90
2019-03-04T17:20:18.917Z,3.43
2019-03-04T17:22:47.242Z,2.83
2019-03-04T17:25:22.895Z,2.30
2019-03-04T17:27:51.158Z,2.33
2019-03-04T17:30:20.461Z,2.40
2019-03-04T17:32:48.709Z,3.47
2019-03-04T17:35:21.642Z,2.33
2019-03-04T17:37:49.897Z,2.50
2019-03-04T17:40:19.927Z,2.30
2019-03-04T17:42:48.169Z,2.73
2019-03-04T17:45:21.362Z,2.97
2019-03-04T17:47:49.626Z,2.40
2019-03-04T17:50:33.349Z,3.67
2019-03-04T17:53:02.834Z,3.53
2019-03-04T17:55:31.090Z,4.00
2019-03-04T17:57:59.351Z,2.80
2019-03-04T18:00:27.930Z,3.93
2019-03-04T18:02:56.199Z,3.73
2019-03-04T18:05:24.450Z,4.57
2019-03-04T18:07:53.017Z,4.77
2019-03-04T18:10:21.267Z,4.13
2019-03-04T18:12:49.535Z,3.50
2019-03-04T18:15:28.410Z,6.30
2019-03-04T18:17:56.681Z,6.73
2019-03-04T18:20:34.007Z,6.03
2019-03-04T18:22:55.006Z,2.90
2019-03-04T18:25:44.602Z,5.47
2019-03-04T18:28:18.690Z,2.37
2019-03-04T18:30:53.098Z,2.97
2019-03-04T18:33:38.970Z,3.87
2019-03-04T18:36:16.581Z,2.77
2019-03-04T18:38:50.774Z,5.23
2019-03-04T18:41:28.086Z,2.00
2019-03-04T18:44:23.942Z,2.37
2019-03-04T18:47:07.370Z,4.33
2019-03-04T18:49:37.258Z,1.77
2019-03-04T18:52:05.529Z,3.53
2019-03-04T18:54:33.786Z,4.00
2019-03-04T18:57:02.050Z,2.10
2019-03-04T18:59:30.298Z,1.70
2019-03-04T19:01:58.775Z,3.73
2019-03-04T19:04:27.026Z,5.07
2019-03-04T19:06:55.278Z,1.73
2019-03-04T19:09:23.544Z,6.77
2019-03-04T19:11:51.798Z,2.40
2019-03-04T19:14:21.172Z,3.23
2019-03-04T19:16:49.766Z,3.83
2019-03-04T19:19:18.030Z,4.17
2019-03-04T19:21:46.290Z,1.17
2019-03-04T19:24:14.654Z,2.90
2019-03-04T19:26:42.901Z,3.10
2019-03-04T19:29:11.166Z,2.10
2019-03-04T19:31:39.422Z,2.60
2019-03-04T19:34:07.715Z,2.57
2019-03-04T19:36:35.966Z,3.03
2019-03-04T19:39:06.174Z,4.50
2019-03-04T19:41:34.506Z,9.20
2019-03-04T19:44:02.834Z,2.77
2019-03-04T19:46:31.090Z,2.07
2019-03-04T19:48:59.358Z,4.47
2019-03-04T19:51:27.617Z,3.67
2019-03-04T19:53:55.887Z,3.40
2019-03-04T19:56:26.073Z,2.17
2019-03-04T19:58:54.118Z,5.47
2019-03-04T20:01:22.374Z,5.13
2019-03-04T20:03:50.651Z,2.70
2019-03-04T20:06:18.906Z,4.07
2019-03-04T20:08:47.186Z,3.07
2019-03-04T20:11:15.454Z,10.07
2019-03-04T20:13:43.710Z,3.23
2019-03-04T20:16:11.973Z,4.80
2019-03-04T20:18:40.238Z,4.57
2019-03-04T20:21:08.555Z,6.80
2019-03-04T20:23:36.835Z,2.63
2019-03-04T20:26:05.093Z,4.43
2019-03-04T20:28:33.350Z,3.40
2019-03-04T20:31:01.614Z,3.97
2019-03-04T20:33:29.870Z,6.00
2019-03-04T20:35:58.176Z,3.90
2019-03-04T20:38:35.058Z,4.30
2019-03-04T20:41:03.331Z,7.80
2019-03-04T20:43:31.577Z,3.93
2019-03-04T20:45:59.842Z,3.97
2019-03-04T20:48:28.094Z,2.10
2019-03-04T20:50:56.363Z,2.20
2019-03-04T20:53:24.617Z,6.53
2019-03-04T20:55:52.882Z,7.90
2019-03-04T20:58:21.140Z,5.87
2019-03-04T21:00:49.402Z,5.10
2019-03-04T21:03:17.654Z,5.17
2019-03-04T21:05:45.915Z,5.83
2019-03-04T21:08:14.171Z,4.07
2019-03-04T21:10:42.455Z,9.23
2019-03-04T21:13:34.863Z,5.93
2019-03-04T21:15:54.191Z,4.67
2019-03-04T21:18:22.526Z,9.30
2019-03-04T21:20:50.786Z,8.43
2019-03-04T21:23:19.043Z,6.07
2019-03-04T21:25:56.935Z,6.43
2019-03-04T21:28:28.446Z,8.67
2019-03-04T21:30:59.965Z,5.50
2019-03-04T21:33:40.381Z,5.60
2019-03-04T21:36:17.451Z,8.47
2019-03-04T21:38:45.701Z,4.80
2019-03-04T21:41:22.806Z,9.10
2019-03-04T21:43:56.880Z,5.13
2019-03-04T21:46:49.944Z,5.70
2019-03-04T21:49:18.213Z,4.00
2019-03-04T21:51:49.797Z,8.00
2019-03-04T21:54:18.058Z,6.23
2019-03-04T21:56:58.737Z,7.30
2019-03-04T21:59:27.358Z,5.80
2019-03-04T22:02:07.706Z,5.70
2019-03-04T22:04:36.018Z,7.10
2019-03-04T22:07:04.299Z,4.00
2019-03-04T22:09:32.564Z,5.80
2019-03-04T22:12:00.851Z,4.80
2019-03-04T22:14:29.154Z,5.87
2019-03-04T22:16:57.409Z,4.27
2019-03-04T22:19:25.697Z,4.63
2019-03-04T22:21:53.938Z,4.37
2019-03-04T22:24:22.214Z,6.17
2019-03-04T22:26:50.462Z,6.10
2019-03-04T22:29:18.759Z,6.40
2019-03-04T22:31:47.336Z,3.03
2019-03-04T22:34:15.619Z,5.37
2019-03-04T22:36:43.928Z,5.40
2019-03-04T22:39:12.186Z,4.13
2019-03-04T22:41:40.458Z,3.63
2019-03-04T22:44:08.722Z,4.70
2019-03-04T22:46:37.349Z,5.30
2019-03-04T22:49:05.613Z,6.17
2019-03-04T22:51:33.877Z,5.53
2019-03-04T22:54:02.130Z,7.63
2019-03-04T22:56:30.406Z,4.63
2019-03-04T22:58:58.744Z,8.87
2019-03-04T23:01:30.682Z,5.17
2019-03-04T23:04:05.289Z,3.30
2019-03-04T23:06:54.954Z,5.73
2019-03-04T23:09:26.650Z,4.13
2019-03-04T23:12:04.066Z,4.60
2019-03-04T23:14:33.969Z,5.80
2019-03-04T23:17:02.562Z,4.93
2019-03-04T23:19:30.825Z,2.90
2019-03-04T23:21:59.159Z,3.43
2019-03-04T23:24:27.423Z,5.97
2019-03-04T23:26:55.686Z,3.47
2019-03-04T23:29:23.939Z,3.43
2019-03-04T23:31:52.206Z,3.57
2019-03-04T23:34:20.453Z,2.57
2019-03-04T23:36:48.717Z,2.63
2019-03-04T23:39:16.978Z,1.87
2019-03-04T23:41:45.257Z,6.70
2019-03-04T23:44:13.515Z,2.60
2019-03-04T23:46:41.781Z,5.17
2019-03-04T23:49:10.045Z,3.67
2019-03-04T23:51:38.323Z,6.27
2019-03-04T23:54:06.637Z,4.47
2019-03-04T23:56:34.902Z,2.83
2019-03-04T23:59:03.162Z,3.23
